Time;durP1;ratioP1;P1;durP2;ratioP2;P2;SDS_P1;SDS_P2;PMS_P1;PMS_P2;Temp;Humidity;BMP_temperature;BMP_pressure;BME280_temperature;BME280_humidity;BME280_pressure;Samples;Min_cycle;Max_cycle;Signal;HPM_P1;HPM_P2
2022/02/13 00:02:14;;;;;;;1.10;0.60;;;;;;;0.00;58.91;99607.34;5127966;27;20043;-61
2022/02/13 00:04:41;;;;;;;1.67;0.80;;;;;;;-0.06;59.41;99614.97;5134211;27;20043;-59
2022/02/13 00:07:07;;;;;;;6.25;0.93;;;;;;;-0.09;59.27;99609.81;5135115;27;20426;-60
2022/02/13 00:09:33;;;;;;;2.92;0.82;;;;;;;0.02;59.26;99615.00;5134498;27;20538;-63
2022/02/13 00:12:00;;;;;;;0.70;0.50;;;;;;;-0.02;59.80;99619.25;5134271;27;20120;-59
2022/02/13 00:14:27;;;;;;;1.23;0.80;;;;;;;-0.06;59.70;99615.81;5134292;27;20153;-60
2022/02/13 00:16:53;;;;;;;2.13;0.80;;;;;;;-0.06;59.71;99609.84;5133568;27;20076;-63
2022/02/13 00:19:19;;;;;;;0.77;0.57;;;;;;;-0.04;59.80;99611.56;5117688;27;20039;-61
2022/02/13 00:21:44;;;;;;;5.05;0.50;;;;;;;-0.07;60.09;99609.00;5115624;27;20047;-59
2022/02/13 00:24:10;;;;;;;5.00;1.10;;;;;;;-0.06;60.07;99600.50;5136294;27;20119;-59
2022/02/13 00:26:36;;;;;;;1.85;0.45;;;;;;;-0.04;60.39;99605.59;5118839;27;20050;-61
2022/02/13 00:29:02;;;;;;;1.02;0.43;;;;;;;-0.06;60.24;99600.50;5133457;27;20035;-55
2022/02/13 00:31:28;;;;;;;1.98;0.75;;;;;;;-0.04;60.39;99608.16;5140383;27;20046;-57
2022/02/13 00:33:54;;;;;;;2.55;0.88;;;;;;;-0.17;60.80;99591.91;5115754;27;20058;-56
2022/02/13 00:36:20;;;;;;;0.88;0.40;;;;;;;-0.05;60.71;99606.44;5134374;27;20039;-60
2022/02/13 00:38:47;;;;;;;1.60;0.57;;;;;;;-0.02;61.06;99598.81;5123914;27;20122;-57
2022/02/13 00:41:13;;;;;;;1.75;0.75;;;;;;;0.02;60.99;99608.19;5140448;27;20035;-59
2022/02/13 00:43:39;;;;;;;0.50;0.30;;;;;;;-0.03;60.91;99600.50;5133850;27;20041;-58
2022/02/13 00:46:05;;;;;;;2.55;0.50;;;;;;;-0.05;61.22;99606.44;5133718;27;20433;-57
2022/02/13 00:48:31;;;;;;;0.80;0.50;;;;;;;-0.07;61.36;99603.88;5133701;27;20035;-61
2022/02/13 00:50:56;;;;;;;3.30;0.82;;;;;;;-0.06;61.71;99600.50;5134201;27;20133;-61
2022/02/13 00:53:22;;;;;;;1.05;0.40;;;;;;;-0.01;61.60;99601.38;5133434;27;20073;-58
2022/02/13 00:55:48;;;;;;;1.45;0.52;;;;;;;-0.06;62.08;99597.09;5133975;27;20042;-59
2022/02/13 00:58:13;;;;;;;4.65;0.70;;;;;;;-0.03;61.97;99604.75;5127490;27;20031;-57
2022/02/13 01:00:39;;;;;;;1.23;0.17;;;;;;;-0.02;62.16;99596.25;5135293;27;20043;-59
2022/02/13 01:03:05;;;;;;;0.55;0.28;;;;;;;-0.06;62.08;99599.63;5140111;27;20038;-60
2022/02/13 01:05:30;;;;;;;1.83;0.52;;;;;;;-0.18;62.21;99592.72;5134536;27;20035;-59
2022/02/13 01:07:56;;;;;;;3.63;0.60;;;;;;;-0.12;62.65;99610.66;5141468;27;20129;-61
2022/02/13 01:10:22;;;;;;;2.28;0.68;;;;;;;-0.10;62.69;99603.84;5141047;27;20031;-59
2022/02/13 01:12:48;;;;;;;2.03;0.60;;;;;;;-0.04;62.87;99600.47;5142608;27;20566;-58
2022/02/13 01:15:15;;;;;;;1.50;0.75;;;;;;;-0.03;62.82;99607.31;5133180;27;20083;-60
2022/02/13 01:17:41;;;;;;;4.10;0.77;;;;;;;0.02;63.07;99607.34;5132383;27;20047;-60
2022/02/13 01:20:07;;;;;;;1.17;0.68;;;;;;;-0.02;62.89;99609.03;5133249;27;20039;-59
2022/02/13 01:22:33;;;;;;;3.50;0.68;;;;;;;0.00;62.85;99600.50;5133856;27;20031;-59
2022/02/13 01:24:59;;;;;;;2.65;0.70;;;;;;;0.10;63.16;99604.00;5114238;27;20095;-59
2022/02/13 01:27:25;;;;;;;1.85;0.60;;;;;;;0.12;63.04;99601.44;5131308;27;20039;-59
2022/02/13 01:29:51;;;;;;;2.92;0.70;;;;;;;0.17;62.83;99605.72;5124895;27;20043;-59
2022/02/13 01:32:16;;;;;;;2.65;0.47;;;;;;;0.13;63.34;99609.13;5133009;27;20125;-60
2022/02/13 01:34:42;;;;;;;1.80;0.60;;;;;;;0.00;63.60;99590.28;5132514;27;20046;-60
2022/02/13 01:37:08;;;;;;;4.05;0.70;;;;;;;0.12;63.82;99604.00;5111379;27;20075;-60
2022/02/13 01:39:40;;;;;;;0.55;0.50;;;;;;;0.13;63.53;99606.56;5102867;27;20039;-59
2022/02/13 01:42:09;;;;;;;0.82;0.30;;;;;;;0.15;64.26;99604.88;5128774;27;20047;-61
2022/02/13 01:44:35;;;;;;;2.23;0.30;;;;;;;0.04;63.99;99587.78;5132117;27;20035;-59
2022/02/13 01:47:02;;;;;;;1.42;0.60;;;;;;;0.22;63.77;99605.75;5129392;27;20610;-59
2022/02/13 01:49:29;;;;;;;1.23;0.40;;;;;;;0.15;63.70;99586.13;5131837;27;20502;-60
2022/02/13 01:51:56;;;;;;;1.45;0.45;;;;;;;0.28;64.32;99609.22;5131542;27;20035;-59
2022/02/13 01:54:22;;;;;;;2.45;0.68;;;;;;;0.34;64.16;99616.06;5094912;27;20059;-59
2022/02/13 01:56:48;;;;;;;3.40;0.95;;;;;;;0.41;63.95;99616.13;5112835;27;20132;-59
2022/02/13 01:59:13;;;;;;;4.03;0.88;;;;;;;0.42;64.18;99606.72;5127682;27;20055;-60
2022/02/13 02:01:40;;;;;;;2.83;0.60;;;;;;;0.43;63.82;99619.50;5132031;27;20035;-60
2022/02/13 02:04:06;;;;;;;3.40;1.05;;;;;;;0.43;64.31;99605.88;5130241;27;20054;-59
2022/02/13 02:06:31;;;;;;;2.78;0.70;;;;;;;0.44;64.10;99617.81;5127430;27;20039;-59
2022/02/13 02:08:57;;;;;;;3.20;0.80;;;;;;;0.53;64.00;99610.19;5113194;27;20027;-59
2022/02/13 02:11:24;;;;;;;3.90;0.98;;;;;;;0.58;63.90;99611.06;5130839;27;20034;-60
2022/02/13 02:13:49;;;;;;;1.70;0.50;;;;;;;0.62;63.98;99615.34;5128114;27;20039;-59
2022/02/13 02:16:15;;;;;;;1.27;0.60;;;;;;;0.61;64.21;99618.75;5132418;27;20105;-61
2022/02/13 02:18:40;;;;;;;2.83;0.88;;;;;;;0.49;64.32;99598.22;5130496;27;20060;-60
2022/02/13 02:21:08;;;;;;;4.22;0.70;;;;;;;0.61;64.26;99615.34;5110163;27;20446;-61
2022/02/13 02:23:35;;;;;;;2.42;0.68;;;;;;;0.61;64.55;99613.66;5129980;27;20470;-61
2022/02/13 02:26:01;;;;;;;3.05;1.33;;;;;;;0.67;64.40;99615.38;5132324;27;20515;-60
2022/02/13 02:28:26;;;;;;;3.30;0.65;;;;;;;0.72;64.55;99614.53;5132043;27;20107;-61
2022/02/13 02:30:52;;;;;;;5.45;0.80;;;;;;;0.76;64.16;99630.75;5132332;27;20502;-60
2022/02/13 02:33:19;;;;;;;1.05;0.60;;;;;;;0.78;64.04;99622.25;5113812;27;20103;-59
2022/02/13 02:35:47;;;;;;;2.28;0.80;;;;;;;0.82;64.42;99618.84;5132131;27;20049;-58
2022/02/13 02:38:13;;;;;;;0.88;0.63;;;;;;;0.90;63.89;99618.84;5132363;27;20035;-60
2022/02/13 02:40:40;;;;;;;4.00;0.95;;;;;;;0.93;64.23;99620.59;5131893;27;20426;-59
2022/02/13 02:43:05;;;;;;;2.92;0.88;;;;;;;0.88;64.29;99607.78;5096400;27;20126;-61
2022/02/13 02:45:31;;;;;;;3.92;0.60;;;;;;;0.84;64.06;99593.25;5131538;27;20130;-60
2022/02/13 02:47:57;;;;;;;4.82;1.20;;;;;;;0.89;64.30;99612.03;5127370;27;20036;-59
2022/02/13 02:50:22;;;;;;;2.08;0.75;;;;;;;0.98;64.07;99629.13;5131961;27;20043;-59
2022/02/13 02:52:48;;;;;;;1.10;0.75;;;;;;;1.00;63.93;99628.28;5130288;27;21217;-60
2022/02/13 02:55:13;;;;;;;1.73;0.80;;;;;;;1.02;64.25;99624.03;5111197;27;20505;-60
2022/02/13 02:57:39;;;;;;;1.67;0.80;;;;;;;1.05;64.23;99618.91;5130775;27;20510;-60
2022/02/13 03:00:08;;;;;;;6.22;0.90;;;;;;;1.11;63.86;99618.06;5129899;27;20058;-63
2022/02/13 03:02:35;;;;;;;2.55;0.50;;;;;;;1.13;63.89;99624.06;5110865;27;20044;-60
2022/02/13 03:05:01;;;;;;;1.63;0.60;;;;;;;1.08;64.39;99618.94;5131654;27;20035;-60
2022/02/13 03:07:27;;;;;;;4.18;1.17;;;;;;;1.01;63.95;99604.38;5109252;27;20058;-60
2022/02/13 03:09:52;;;;;;;0.80;0.50;;;;;;;1.15;63.84;99624.91;5112265;27;20035;-60
2022/02/13 03:12:18;;;;;;;1.25;0.43;;;;;;;1.20;63.71;99636.84;5131440;27;20528;-60
2022/02/13 03:14:44;;;;;;;2.30;0.68;;;;;;;1.10;64.19;99614.63;5101667;27;20039;-60
2022/02/13 03:17:11;;;;;;;4.13;0.80;;;;;;;1.23;63.90;99633.47;5129600;27;20043;-60
2022/02/13 03:19:37;;;;;;;1.10;0.60;;;;;;;1.30;63.94;99639.47;5130567;27;20537;-60
2022/02/13 03:22:04;;;;;;;4.60;0.80;;;;;;;1.32;63.76;99635.19;5127749;27;20046;-61
2022/02/13 03:24:30;;;;;;;2.28;0.85;;;;;;;1.36;63.40;99627.50;5111605;27;20368;-60
2022/02/13 03:26:56;;;;;;;3.13;0.85;;;;;;;1.39;63.67;99631.78;5125428;27;20035;-60
2022/02/13 03:29:22;;;;;;;3.60;0.77;;;;;;;1.45;63.36;99619.00;5117697;27;20035;-59
2022/02/13 03:31:48;;;;;;;2.63;0.60;;;;;;;1.45;63.30;99636.91;5131347;27;20122;-60
2022/02/13 03:34:14;;;;;;;4.07;0.80;;;;;;;1.43;63.59;99626.66;5129702;27;20088;-60
2022/02/13 03:36:39;;;;;;;1.45;0.50;;;;;;;1.45;63.40;99632.66;5128964;27;20050;-61
2022/02/13 03:39:05;;;;;;;4.53;0.77;;;;;;;1.44;63.59;99638.63;5102236;28;20130;-59
2022/02/13 03:41:31;;;;;;;3.10;1.35;;;;;;;1.34;63.38;99621.53;5123068;28;20051;-60
2022/02/13 03:43:57;;;;;;;0.90;0.35;;;;;;;1.48;63.12;99645.44;5095730;27;20049;-60
2022/02/13 03:46:23;;;;;;;5.00;0.85;;;;;;;1.41;62.91;99633.50;5117686;28;20031;-60
2022/02/13 03:48:49;;;;;;;4.20;0.90;;;;;;;1.53;63.01;99643.75;5128626;27;20425;-59
2022/02/13 03:51:15;;;;;;;4.00;0.90;;;;;;;1.58;63.23;99648.88;5130770;28;20096;-60
2022/02/13 03:53:41;;;;;;;2.10;0.80;;;;;;;1.56;62.80;99637.78;5131080;28;20035;-60
2022/02/13 03:56:07;;;;;;;1.02;0.50;;;;;;;1.53;62.94;99640.34;5131105;28;20580;-60
2022/02/13 03:58:32;;;;;;;2.13;0.60;;;;;;;1.53;63.06;99645.44;5130511;28;20122;-61
2022/02/13 04:00:59;;;;;;;7.80;1.20;;;;;;;1.41;62.93;99612.16;5130930;27;20046;-60
2022/02/13 04:03:26;;;;;;;4.47;1.20;;;;;;;1.60;62.48;99653.16;5130342;28;20066;-59
2022/02/13 04:05:54;;;;;;;3.47;0.85;;;;;;;1.67;62.68;99642.03;5130861;27;20130;-60
2022/02/13 04:08:23;;;;;;;1.83;0.95;;;;;;;1.70;62.37;99648.91;5122336;28;20043;-60
2022/02/13 04:10:50;;;;;;;4.80;1.00;;;;;;;1.69;62.21;99652.31;5131536;27;20395;-61
2022/02/13 04:13:16;;;;;;;3.60;0.82;;;;;;;1.66;62.58;99644.63;5126592;28;20048;-61
2022/02/13 04:15:42;;;;;;;3.83;0.43;;;;;;;1.68;62.48;99648.03;5123804;28;20039;-60
2022/02/13 04:18:15;;;;;;;3.10;0.93;;;;;;;1.73;62.54;99654.00;5130666;27;20528;-60
2022/02/13 04:20:41;;;;;;;2.72;1.00;;;;;;;1.64;62.30;99641.19;5130920;28;20035;-59
2022/02/13 04:23:07;;;;;;;0.88;0.52;;;;;;;1.74;61.99;99652.31;5112328;28;20047;-61
2022/02/13 04:25:34;;;;;;;3.25;0.75;;;;;;;1.68;62.30;99648.03;5130541;28;20560;-61
2022/02/13 04:28:00;;;;;;;5.15;0.88;;;;;;;1.78;62.01;99661.72;5131043;27;20039;-59
2022/02/13 04:30:25;;;;;;;2.85;1.05;;;;;;;1.82;61.89;99648.91;5130324;28;20122;-60
2022/02/13 04:32:53;;;;;;;5.60;0.75;;;;;;;1.85;61.59;99655.72;5113152;28;20030;-60
2022/02/13 04:35:19;;;;;;;6.47;0.60;;;;;;;1.79;61.63;99653.16;5130260;28;20062;-60
2022/02/13 04:37:50;;;;;;;4.57;0.90;;;;;;;1.86;61.84;99652.31;5130307;28;20091;-61
2022/02/13 04:40:15;;;;;;;1.55;0.60;;;;;;;1.90;61.59;99666.84;5110912;27;20042;-61
2022/02/13 04:42:41;;;;;;;1.35;0.50;;;;;;;1.92;61.63;99665.13;5129980;27;20031;-59
2022/02/13 04:45:07;;;;;;;1.38;0.70;;;;;;;1.86;61.47;99667.69;5131628;27;20039;-59
2022/02/13 04:47:33;;;;;;;5.40;0.65;;;;;;;1.83;61.49;99668.56;5132753;27;20031;-60
2022/02/13 04:49:59;;;;;;;2.25;0.52;;;;;;;1.85;61.38;99671.09;5115145;27;20035;-60
2022/02/13 04:52:24;;;;;;;2.38;0.68;;;;;;;1.90;61.45;99682.22;5130871;27;20043;-60
2022/02/13 04:54:50;;;;;;;2.47;0.55;;;;;;;1.90;61.17;99666.84;5113265;27;20051;-61
2022/02/13 04:57:16;;;;;;;5.95;1.05;;;;;;;1.92;61.46;99680.53;5110659;27;20054;-60
2022/02/13 04:59:41;;;;;;;7.47;1.25;;;;;;;1.97;61.10;99689.94;5133243;27;20516;-61
2022/02/13 05:02:07;;;;;;;1.38;0.70;;;;;;;2.03;60.94;99676.25;5132632;27;20085;-61
2022/02/13 05:04:33;;;;;;;2.95;0.80;;;;;;;2.00;61.04;99683.94;5115914;27;20074;-61
2022/02/13 05:06:59;;;;;;;2.72;1.08;;;;;;;1.82;61.02;99659.16;5124460;27;20067;-60
2022/02/13 05:09:25;;;;;;;3.50;0.80;;;;;;;2.01;60.77;99683.94;5118827;27;20042;-61
2022/02/13 05:11:51;;;;;;;5.30;0.90;;;;;;;1.99;61.11;99693.31;5133408;27;20422;-61
2022/02/13 05:14:17;;;;;;;1.95;0.80;;;;;;;2.02;60.75;99685.66;5132396;27;20126;-60
2022/02/13 05:16:43;;;;;;;2.30;0.68;;;;;;;2.01;61.05;99686.50;5113255;27;20461;-59
2022/02/13 05:19:09;;;;;;;1.98;0.70;;;;;;;2.04;61.15;99696.75;5125578;27;20143;-60
2022/02/13 05:21:35;;;;;;;4.18;1.02;;;;;;;2.06;60.75;99687.34;5110530;27;20138;-60
2022/02/13 05:24:00;;;;;;;3.53;1.20;;;;;;;2.01;60.64;99693.34;5133244;27;20070;-57
2022/02/13 05:26:26;;;;;;;2.47;0.70;;;;;;;2.05;60.78;99682.22;5132169;27;20126;-59
2022/02/13 05:28:55;;;;;;;4.50;0.90;;;;;;;2.06;60.87;99701.88;5131926;27;20039;-60
2022/02/13 05:31:21;;;;;;;6.55;1.10;;;;;;;2.07;60.76;99699.31;5114354;27;20035;-63
2022/02/13 05:33:46;;;;;;;2.80;0.70;;;;;;;2.03;60.73;99707.88;5125707;27;20100;-64
2022/02/13 05:36:12;;;;;;;4.32;0.80;;;;;;;2.16;60.67;99711.28;5133437;27;20035;-61
2022/02/13 05:38:37;;;;;;;2.42;0.70;;;;;;;2.12;60.53;99701.88;5128875;27;20069;-60
2022/02/13 05:41:03;;;;;;;2.60;0.60;;;;;;;2.12;60.28;99705.31;5114512;27;20563;-61
2022/02/13 05:43:29;;;;;;;1.80;0.80;;;;;;;2.07;60.47;99714.72;5132115;27;20556;-60
2022/02/13 05:45:55;;;;;;;4.32;0.80;;;;;;;2.11;60.48;99713.84;5130749;27;20031;-60
2022/02/13 05:48:22;;;;;;;2.83;0.70;;;;;;;2.21;60.38;99709.56;5109183;27;20157;-60
2022/02/13 05:50:48;;;;;;;3.67;0.90;;;;;;;2.25;60.21;99715.56;5094821;28;20036;-60
2022/02/13 05:53:14;;;;;;;2.08;0.50;;;;;;;2.27;59.99;99714.69;5110968;28;20044;-62
2022/02/13 05:55:40;;;;;;;2.38;0.63;;;;;;;2.28;59.69;99715.56;5121183;27;20469;-60
2022/02/13 05:58:05;;;;;;;1.92;0.75;;;;;;;2.27;59.43;99724.97;5123258;27;20043;-61
2022/02/13 06:00:32;;;;;;;2.58;0.60;;;;;;;2.25;59.78;99723.25;5129754;27;20411;-62
2022/02/13 06:02:58;;;;;;;5.00;1.85;;;;;;;2.25;59.61;99718.13;5122400;27;20130;-63
2022/02/13 06:05:24;;;;;;;3.80;0.90;;;;;;;2.29;59.81;99717.28;5127206;27;20121;-61
2022/02/13 06:07:49;;;;;;;8.95;0.70;;;;;;;2.26;59.76;99712.13;5129981;27;20413;-61
2022/02/13 06:10:15;;;;;;;2.53;0.60;;;;;;;2.27;59.61;99721.53;5106875;27;20039;-59
2022/02/13 06:12:41;;;;;;;1.77;0.80;;;;;;;2.28;59.95;99713.84;5125237;27;20079;-58
2022/02/13 06:15:10;;;;;;;14.90;2.08;;;;;;;2.29;59.68;99732.66;5113897;27;20031;-56
2022/02/13 06:17:36;;;;;;;5.55;0.93;;;;;;;2.29;59.69;99724.97;5097832;27;20126;-62
2022/02/13 06:20:03;;;;;;;1.73;0.40;;;;;;;2.25;59.63;99707.88;5131889;27;20138;-61
2022/02/13 06:22:30;;;;;;;2.22;0.80;;;;;;;2.27;59.92;99726.66;5112990;27;20043;-60
2022/02/13 06:24:55;;;;;;;3.22;0.55;;;;;;;2.29;59.64;99730.09;5111609;27;20468;-61
2022/02/13 06:27:21;;;;;;;2.03;0.60;;;;;;;2.24;59.81;99724.13;5130941;27;20043;-60
2022/02/13 06:29:48;;;;;;;1.83;0.82;;;;;;;2.22;60.11;99718.13;5130258;27;20391;-62
2022/02/13 06:32:13;;;;;;;2.30;0.70;;;;;;;2.25;59.95;99721.53;5110567;27;20079;-60
2022/02/13 06:34:39;;;;;;;2.42;0.85;;;;;;;2.32;60.12;99736.06;5112568;27;20426;-61
2022/02/13 06:37:05;;;;;;;1.48;0.68;;;;;;;2.36;59.86;99734.34;5129152;27;20038;-61
2022/02/13 06:39:31;;;;;;;3.22;0.60;;;;;;;2.31;59.92;99721.53;5097764;27;20170;-61
2022/02/13 06:41:56;;;;;;;2.97;0.60;;;;;;;2.40;59.71;99738.66;5126485;27;20047;-63
2022/02/13 06:44:22;;;;;;;3.00;0.80;;;;;;;2.42;59.40;99731.78;5118174;27;20034;-62
2022/02/13 06:46:48;;;;;;;6.28;1.38;;;;;;;2.48;59.55;99740.34;5095766;27;20043;-62
2022/02/13 06:49:13;;;;;;;4.30;0.90;;;;;;;2.40;59.32;99733.50;5113311;27;20049;-60
2022/02/13 06:51:39;;;;;;;4.18;0.80;;;;;;;2.41;59.50;99746.31;5093586;27;20074;-63
2022/02/13 06:54:05;;;;;;;2.50;0.82;;;;;;;2.36;59.69;99744.59;5131992;27;20043;-62
2022/02/13 06:56:30;;;;;;;2.72;0.63;;;;;;;2.41;59.38;99732.63;5131925;27;20051;-63
2022/02/13 06:58:56;;;;;;;3.47;1.10;;;;;;;2.55;59.47;99751.47;5131793;27;20039;-62
2022/02/13 07:01:22;;;;;;;5.05;1.08;;;;;;;2.60;58.98;99744.59;5131581;27;20039;-62
2022/02/13 07:03:47;;;;;;;3.33;0.90;;;;;;;2.69;59.04;99754.00;5131733;27;20034;-62
2022/02/13 07:06:13;;;;;;;2.92;0.70;;;;;;;2.61;59.16;99730.06;5131051;27;20176;-61
2022/02/13 07:08:39;;;;;;;3.65;0.73;;;;;;;2.53;58.73;99741.19;5125205;27;20069;-62
2022/02/13 07:11:04;;;;;;;1.35;0.80;;;;;;;2.65;59.11;99766.00;5125732;27;20043;-59
2022/02/13 07:13:30;;;;;;;4.05;0.90;;;;;;;2.66;59.08;99760.00;5115061;27;20521;-61
2022/02/13 07:15:56;;;;;;;3.65;0.60;;;;;;;2.64;58.83;99754.00;5125861;27;20046;-65
2022/02/13 07:18:21;;;;;;;2.97;0.70;;;;;;;2.69;58.88;99759.97;5127137;27;20031;-61
2022/02/13 07:20:47;;;;;;;2.70;0.60;;;;;;;2.71;58.81;99763.41;5129433;27;20043;-60
2022/02/13 07:23:13;;;;;;;2.70;0.82;;;;;;;2.73;59.08;99769.38;5139433;27;20047;-65
2022/02/13 07:25:39;;;;;;;1.20;0.63;;;;;;;2.79;58.86;99768.53;5122107;27;20027;-67
2022/02/13 07:28:58;;;;;;;3.47;0.60;;;;;;;2.71;58.41;99742.88;5138826;27;20031;-60
2022/02/13 07:30:50;;;;;;;3.85;0.98;;;;;;;2.79;58.76;99745.41;5138354;27;20030;-53
2022/02/13 07:33:16;;;;;;;5.47;1.45;;;;;;;2.83;58.19;99745.41;5141341;27;20035;-53
2022/02/13 07:35:43;;;;;;;3.42;1.25;;;;;;;2.95;58.23;99768.50;5136236;27;20046;-57
2022/02/13 07:38:10;;;;;;;6.35;1.45;;;;;;;3.02;58.53;99763.34;5137139;27;20506;-55
2022/02/13 07:40:37;;;;;;;7.13;1.60;;;;;;;3.05;58.22;99747.91;5144700;27;20557;-56
2022/02/13 07:43:02;;;;;;;3.42;1.00;;;;;;;3.20;57.46;99748.72;5123382;28;20034;-52
2022/02/13 07:45:28;;;;;;;3.80;1.35;;;;;;;3.26;57.40;99766.69;5112623;28;20039;-59
2022/02/13 07:47:54;;;;;;;8.45;1.58;;;;;;;3.26;57.87;99773.53;5128195;28;20043;-57
2022/02/13 07:50:19;;;;;;;7.90;1.40;;;;;;;3.39;57.76;99768.38;5127343;27;20043;-53
2022/02/13 07:52:45;;;;;;;3.97;1.48;;;;;;;3.44;57.25;99775.19;5120789;28;20134;-57
2022/02/13 07:55:12;;;;;;;8.05;1.65;;;;;;;3.42;57.11;99783.75;5130309;27;20039;-60
2022/02/13 07:57:38;;;;;;;3.50;1.08;;;;;;;3.48;57.06;99782.00;5119832;28;20166;-53
2022/02/13 08:00:05;;;;;;;3.35;1.00;;;;;;;3.45;56.88;99782.03;5129819;28;20074;-52
2022/02/13 08:02:38;;;;;;;3.00;0.70;;;;;;;3.48;56.95;99785.44;5122617;28;20095;-54
2022/02/13 08:05:05;;;;;;;4.80;1.02;;;;;;;3.38;57.41;99794.06;5129314;28;20031;-48
2022/02/13 08:07:31;;;;;;;4.65;1.40;;;;;;;3.42;57.54;99794.03;5113072;28;20448;-52
2022/02/13 08:09:57;;;;;;;5.10;1.67;;;;;;;3.59;57.01;99787.97;5110630;28;20035;-49
2022/02/13 08:12:23;;;;;;;2.50;0.88;;;;;;;3.59;56.84;99799.09;5131749;28;20073;-48
2022/02/13 08:14:49;;;;;;;7.57;1.35;;;;;;;3.53;57.12;99799.13;5099360;28;20067;-54
2022/02/13 08:17:15;;;;;;;7.95;0.95;;;;;;;3.55;56.92;99797.41;5131566;27;20054;-52
2022/02/13 08:19:41;;;;;;;4.05;1.00;;;;;;;3.52;57.21;99791.41;5116012;27;20043;-50
2022/02/13 08:22:07;;;;;;;2.47;0.82;;;;;;;3.46;57.24;99791.44;5130325;27;20035;-53
2022/02/13 08:24:34;;;;;;;4.57;1.15;;;;;;;3.72;57.20;99795.59;5115880;27;20039;-50
2022/02/13 08:27:00;;;;;;;4.72;1.13;;;;;;;4.08;56.10;99801.44;5135132;27;20035;-54
2022/02/13 08:29:26;;;;;;;4.22;1.52;;;;;;;4.37;55.01;99799.50;5133079;27;20518;-53
2022/02/13 08:31:52;;;;;;;6.60;1.00;;;;;;;5.50;53.00;99812.13;5135263;27;20043;-51
2022/02/13 08:34:18;;;;;;;7.72;1.40;;;;;;;5.87;51.30;99809.97;5133620;27;20046;-52
2022/02/13 08:36:44;;;;;;;5.75;1.02;;;;;;;5.89;51.76;99815.97;5134343;27;20038;-49
2022/02/13 08:39:09;;;;;;;6.15;1.67;;;;;;;5.90;51.42;99805.63;5130126;27;20135;-53
2022/02/13 08:41:36;;;;;;;3.85;0.95;;;;;;;5.50;51.18;99797.50;5135298;27;20506;-51
2022/02/13 08:44:06;;;;;;;3.30;0.90;;;;;;;5.23;51.86;99800.41;5135093;27;20093;-54
2022/02/13 08:46:34;;;;;;;4.95;1.05;;;;;;;5.34;51.81;99810.63;5115307;27;20537;-50
2022/02/13 08:49:00;;;;;;;4.10;1.35;;;;;;;6.10;51.12;99807.06;5133233;27;20118;-53
2022/02/13 08:51:26;;;;;;;2.90;1.27;;;;;;;7.16;48.37;99808.75;5134794;27;20039;-54
2022/02/13 08:53:52;;;;;;;3.25;0.82;;;;;;;6.41;49.21;99816.06;5134598;27;20035;-51
2022/02/13 08:56:18;;;;;;;2.75;1.05;;;;;;;6.08;49.96;99807.09;5134372;27;20092;-54
2022/02/13 08:58:44;;;;;;;4.15;0.95;;;;;;;5.74;50.14;99814.41;5134790;27;20038;-56
2022/02/13 09:01:10;;;;;;;5.20;1.10;;;;;;;5.43;51.25;99803.63;5134187;27;20039;-57
2022/02/13 09:03:36;;;;;;;6.03;1.30;;;;;;;5.41;50.78;99786.44;5134886;27;20593;-56
2022/02/13 09:06:02;;;;;;;4.15;1.65;;;;;;;5.52;50.63;99807.81;5134449;27;20125;-54
2022/02/13 09:08:28;;;;;;;3.50;1.08;;;;;;;5.48;51.17;99814.72;5134550;27;20041;-52
2022/02/13 09:10:53;;;;;;;4.50;1.10;;;;;;;5.34;51.38;99818.34;5133380;27;20039;-52
2022/02/13 09:13:19;;;;;;;3.25;0.85;;;;;;;5.43;51.60;99816.50;5116176;27;20043;-54
2022/02/13 09:15:45;;;;;;;2.65;1.20;;;;;;;5.34;51.36;99816.59;5134136;27;20031;-55
2022/02/13 09:18:12;;;;;;;3.78;0.85;;;;;;;5.13;51.46;99809.94;5127273;27;20032;-55
2022/02/13 09:20:40;;;;;;;4.93;0.82;;;;;;;5.13;51.58;99821.16;5155063;27;20089;-52
2022/02/13 09:23:06;;;;;;;5.93;0.85;;;;;;;5.02;52.44;99816.94;5115657;27;20129;-54
2022/02/13 09:25:33;;;;;;;3.35;1.23;;;;;;;4.83;52.69;99820.56;5134439;27;20084;-54
2022/02/13 09:27:58;;;;;;;7.00;1.30;;;;;;;4.79;52.80;99828.34;5133872;27;20046;-52
2022/02/13 09:30:25;;;;;;;3.85;0.85;;;;;;;4.73;52.61;99818.94;5129281;27;20120;-53
2022/02/13 09:32:52;;;;;;;3.42;1.15;;;;;;;4.80;53.15;99817.16;5127234;27;20563;-53
2022/02/13 09:35:17;;;;;;;4.95;1.02;;;;;;;4.89;52.57;99820.50;5115855;27;20047;-51
2022/02/13 09:37:43;;;;;;;4.90;0.90;;;;;;;4.87;52.26;99808.50;5132065;27;20171;-54
2022/02/13 09:40:09;;;;;;;6.40;1.38;;;;;;;4.78;52.94;99824.03;5098355;27;20070;-56
2022/02/13 09:42:36;;;;;;;2.20;1.02;;;;;;;4.62;52.84;99789.84;5129746;27;20049;-54
2022/02/13 09:45:03;;;;;;;4.97;1.20;;;;;;;4.83;53.30;99815.41;5114969;27;20043;-52
2022/02/13 09:47:29;;;;;;;4.75;1.50;;;;;;;4.90;52.77;99824.78;5130870;27;20041;-51
2022/02/13 09:49:54;;;;;;;3.80;1.08;;;;;;;4.82;53.40;99825.72;5133491;27;20039;-53
2022/02/13 09:52:22;;;;;;;6.25;1.67;;;;;;;4.78;53.51;99824.91;5110863;28;20426;-52
2022/02/13 09:54:48;;;;;;;4.70;1.38;;;;;;;4.75;53.08;99827.50;5114747;27;20042;-50
2022/02/13 10:00:00;;;;;;;4.78;2.38;;;;;;;4.87;53.57;99824.81;5128601;27;20103;-52
2022/02/13 10:02:39;;;;;;;3.60;1.45;;;;;;;4.87;53.70;99837.69;5131299;27;20047;-50
2022/02/13 10:05:08;;;;;;;3.42;1.15;;;;;;;4.64;53.25;99834.47;5128522;27;20138;-50
2022/02/13 10:07:35;;;;;;;3.47;0.93;;;;;;;4.37;53.74;99819.22;5075819;27;20487;-53
2022/02/13 10:10:03;;;;;;;1.75;0.95;;;;;;;4.38;53.67;99829.53;5129045;27;20039;-52
2022/02/13 10:12:38;;;;;;;4.38;1.65;;;;;;;4.51;53.81;99830.25;5128881;27;20050;-51
2022/02/13 10:15:22;;;;;;;3.75;1.10;;;;;;;4.74;53.43;99827.50;5132784;27;20034;-53
2022/02/13 10:18:07;;;;;;;2.92;1.20;;;;;;;4.69;53.35;99835.28;5125621;27;20050;-55
2022/02/13 10:20:34;;;;;;;5.00;1.05;;;;;;;4.27;53.68;99803.00;5131239;27;20143;-53
2022/02/13 10:23:06;;;;;;;3.72;1.10;;;;;;;4.47;53.44;99832.03;5132678;27;20047;-56
2022/02/13 10:25:31;;;;;;;3.65;1.05;;;;;;;4.52;53.68;99825.13;5132730;27;20510;-51
2022/02/13 10:27:57;;;;;;;2.13;1.02;;;;;;;4.29;53.69;99815.88;5092434;27;20042;-54
2022/02/13 10:30:37;;;;;;;3.17;0.98;;;;;;;4.30;54.01;99831.28;5131281;27;20031;-55
2022/02/13 10:33:15;;;;;;;;;;;;;;;4.22;54.30;99836.50;5132711;27;20038;-50
2022/02/13 10:35:41;;;;;;;6.00;1.42;;;;;;;4.16;54.54;99828.81;5128994;27;20096;-52
2022/02/13 10:38:08;;;;;;;3.22;1.23;;;;;;;4.11;54.54;99833.13;5130941;27;20186;-55
2022/02/13 10:40:33;;;;;;;4.50;1.02;;;;;;;4.34;53.96;99832.13;5127748;27;20487;-51
2022/02/13 10:43:10;;;;;;;2.97;0.80;;;;;;;4.12;54.77;99824.53;5127396;27;20074;-52
2022/02/13 10:45:38;;;;;;;0.75;0.57;;;;;;;4.11;54.36;99827.13;5131047;27;20045;-55
2022/02/13 10:48:05;;;;;;;3.05;0.90;;;;;;;3.95;54.75;99830.63;5131565;27;20038;-53
2022/02/13 10:50:35;;;;;;;3.35;0.98;;;;;;;4.04;54.97;99833.16;5125946;27;20047;-58
2022/02/13 10:53:02;;;;;;;2.60;0.98;;;;;;;4.04;54.84;99817.72;5121298;27;20093;-53
2022/02/13 10:55:29;;;;;;;2.38;0.70;;;;;;;3.78;55.28;99834.16;5122770;27;20538;-59
2022/02/13 10:57:57;;;;;;;2.50;0.90;;;;;;;3.78;55.56;99825.56;5119691;27;20530;-56
2022/02/13 11:00:23;;;;;;;7.70;1.20;;;;;;;3.73;55.43;99791.31;5124931;27;20053;-53
2022/02/13 11:02:52;;;;;;;3.83;0.80;;;;;;;4.04;54.70;99813.44;5128424;27;20510;-57
2022/02/13 11:05:21;;;;;;;5.07;1.00;;;;;;;4.05;54.82;99801.44;5130378;27;20478;-54
2022/02/13 11:07:49;;;;;;;5.65;1.10;;;;;;;4.19;55.27;99808.19;5111334;27;20035;-55
2022/02/13 11:10:19;;;;;;;3.03;1.05;;;;;;;4.24;54.79;99816.72;5131506;27;20031;-54
2022/02/13 11:12:49;;;;;;;3.50;1.45;;;;;;;4.24;54.73;99811.56;5126415;27;20093;-53
2022/02/13 11:15:17;;;;;;;2.95;0.95;;;;;;;4.36;55.09;99820.09;5107875;27;20031;-55
2022/02/13 11:17:46;;;;;;;1.83;0.90;;;;;;;4.19;55.07;99823.63;5116922;27;20138;-55
2022/02/13 11:20:14;;;;;;;4.17;1.00;;;;;;;4.07;55.65;99821.16;5112866;27;20079;-55
2022/02/13 11:22:41;;;;;;;1.77;0.68;;;;;;;3.91;55.62;99834.94;5111212;27;20071;-53
2022/02/13 11:25:08;;;;;;;3.50;1.00;;;;;;;4.01;55.79;99820.31;5117433;27;20054;-56
2022/02/13 11:27:57;;;;;;;4.60;1.45;;;;;;;3.92;55.96;99828.97;5131494;27;20130;-57
2022/02/13 11:30:49;;;;;;;7.07;1.65;;;;;;;3.97;56.15;99834.94;5100373;28;20039;-56
2022/02/13 11:33:31;;;;;;;2.22;1.10;;;;;;;3.86;56.15;99825.56;5125088;27;20079;-55
2022/02/13 11:36:07;;;;;;;3.22;1.35;;;;;;;4.02;55.69;99829.75;5124644;27;20035;-56
2022/02/13 11:38:46;;;;;;;4.85;1.20;;;;;;;3.93;55.64;99840.06;5120734;27;20571;-56
2022/02/13 11:41:13;;;;;;;2.40;1.10;;;;;;;3.98;55.80;99835.78;5130878;27;20043;-54
2022/02/13 11:43:44;;;;;;;5.18;1.10;;;;;;;3.95;55.95;99834.06;5104534;28;20130;-53